KGEV

Ashe County Airport

Jefferson, North Carolina, USA
METAR KGEV 172050Z AUTO 00000KT 10SM -RA SCT043 BKN060 OVC085 04/M03 A3011 RMK AO2 T00361035
Observed Flight Rules
Dec-17 @ 20:50 UTC (30 minutes ago) Visual Flight Rules
Wind Visibility Clouds Conditions
Calm 10 miles
  • Scattered at 4,300' AGL
  • Broken at 6,000' AGL
  • Overcast at 8,500' AGL
  • Light Rain
Temperatures Readings
Current 4°C / 39°F
Dewpoint -4°C / 25°F
Humidity 56%
Altimeter 30.11" Hg
Pressure 1020 hPa
Elevation 969
METAR KGEV 172050Z AUTO 00000KT 10SM -RA SCT043 BKN060 OVC085 04/M03 A3011 RMK AO2 T00361035
Observed Flight Rules
Dec-17 @ 20:50 UTC
(30 minutes ago)
VFR
Wind Visibility
Calm 10 miles
Clouds
  • Scattered at 4,300' AGL
  • Broken at 6,000' AGL
  • Overcast at 8,500' AGL
Conditions
  • Light Rain
Temperature Dewpoint
4°C / 39°F -4°C / 25°F
Humidity Altimeter Pressure
56% 30.11" Hg 1020 hPa